createdAt,value
2019-04-23T00:01:46.335Z,2.67
2019-04-23T00:04:07.223Z,2.60
2019-04-23T00:06:33.790Z,2.53
2019-04-23T00:09:06.752Z,2.90
2019-04-23T00:11:25.552Z,2.70
2019-04-23T00:14:12.181Z,2.87
2019-04-23T00:16:27.637Z,2.47
2019-04-23T00:18:46.824Z,2.70
2019-04-23T00:24:15.772Z,2.77
2019-04-23T00:26:30.619Z,2.83
2019-04-23T00:28:58.930Z,2.33
2019-04-23T00:31:31.774Z,2.60
2019-04-23T00:33:44.450Z,2.70
2019-04-23T00:36:20.545Z,2.73
2019-04-23T00:38:45.510Z,3.00
2019-04-23T00:41:09.088Z,2.67
2019-04-23T00:43:38.913Z,3.17
2019-04-23T00:45:59.241Z,2.77
2019-04-23T00:53:25.158Z,2.77
2019-04-23T00:56:03.921Z,2.77
2019-04-23T00:58:22.132Z,2.90
2019-04-23T01:00:47.375Z,3.00
2019-04-23T01:03:12.166Z,2.87
2019-04-23T01:05:55.686Z,2.97
2019-04-23T01:08:15.112Z,2.87
2019-04-23T01:10:45.834Z,2.70
2019-04-23T01:13:08.916Z,2.70
2019-04-23T01:15:39.771Z,2.97
2019-04-23T01:20:39.122Z,3.17
2019-04-23T01:22:42.184Z,3.10
2019-04-23T01:25:21.201Z,2.77
2019-04-23T01:28:07.711Z,2.70
2019-04-23T01:30:34.359Z,3.23
2019-04-23T01:33:03.363Z,3.10
2019-04-23T01:35:24.856Z,3.50
2019-04-23T01:37:58.168Z,3.07
2019-04-23T01:40:31.949Z,3.50
2019-04-23T01:42:49.332Z,3.53
2019-04-23T01:47:49.629Z,3.07
2019-04-23T01:52:50.578Z,3.17
2019-04-23T01:55:16.867Z,3.10
2019-04-23T01:57:40.906Z,3.03
2019-04-23T02:00:08.517Z,3.20
2019-04-23T02:02:36.123Z,3.17
2019-04-23T02:05:01.430Z,2.93
2019-04-23T02:07:29.663Z,3.33
2019-04-23T02:09:58.674Z,3.47
2019-04-23T02:12:20.710Z,3.20
2019-04-23T02:14:49.971Z,3.50
2019-04-23T02:17:19.780Z,2.83
2019-04-23T02:19:46.080Z,3.37
2019-04-23T02:22:28.503Z,3.77
2019-04-23T02:24:52.268Z,3.30
2019-04-23T02:27:24.908Z,3.40
2019-04-23T02:29:51.262Z,3.37
2019-04-23T02:32:08.887Z,3.57
2019-04-23T02:34:52.261Z,3.47
2019-04-23T02:37:17.158Z,3.63
2019-04-23T02:39:51.318Z,3.90
2019-04-23T02:42:22.845Z,3.20
2019-04-23T02:44:24.123Z,3.50
2019-04-23T02:49:36.138Z,3.23
2019-04-23T02:51:59.325Z,3.80
2019-04-23T02:56:51.442Z,3.40
2019-04-23T02:59:19.426Z,3.20
2019-04-23T03:06:38.901Z,3.60
2019-04-23T03:09:00.475Z,3.40
2019-04-23T03:11:30.628Z,3.40
2019-04-23T03:19:10.748Z,3.37
2019-04-23T03:21:47.361Z,3.53
2019-04-23T03:24:31.120Z,3.67
2019-04-23T03:27:00.938Z,3.63
2019-04-23T03:29:21.969Z,4.17
2019-04-23T03:34:19.674Z,3.60
2019-04-23T03:37:02.200Z,3.77
2019-04-23T03:38:54.313Z,3.40
2019-04-23T03:41:27.799Z,3.73
2019-04-23T03:43:48.992Z,4.07
2019-04-23T03:48:51.173Z,3.70
2019-04-23T03:51:16.286Z,3.77
2019-04-23T03:53:52.241Z,3.77
2019-04-23T04:01:11.921Z,3.97
2019-04-23T04:04:03.898Z,3.90
2019-04-23T04:06:05.543Z,4.03
2019-04-23T04:13:30.792Z,3.37
2019-04-23T04:15:57.237Z,4.20
2019-04-23T04:25:40.251Z,4.00
2019-04-23T04:28:12.172Z,3.63
2019-04-23T04:30:38.436Z,3.93
2019-04-23T04:33:15.094Z,3.90
2019-04-23T04:35:29.027Z,3.70
2019-04-23T04:38:07.888Z,4.40
2019-04-23T04:45:37.124Z,3.83
2019-04-23T04:50:09.933Z,4.07
2019-04-23T04:55:19.463Z,3.80
2019-04-23T05:00:24.569Z,4.10
2019-04-23T05:02:38.980Z,4.27
2019-04-23T05:05:09.087Z,4.37
2019-04-23T05:10:05.857Z,3.87
2019-04-23T05:14:52.833Z,4.53
2019-04-23T05:17:23.768Z,3.73
2019-04-23T05:19:53.321Z,3.93
2019-04-23T05:27:02.536Z,3.77
2019-04-23T05:29:31.365Z,4.07
2019-04-23T05:32:02.832Z,4.27
2019-04-23T05:34:24.651Z,3.90
2019-04-23T05:36:58.388Z,4.20
2019-04-23T05:41:47.852Z,4.13
2019-04-23T05:46:39.466Z,4.17
2019-04-23T05:51:45.746Z,3.80
2019-04-23T05:54:22.711Z,3.67
2019-04-23T05:56:27.784Z,3.83
2019-04-23T05:58:58.248Z,3.93
2019-04-23T06:04:03.667Z,4.33
2019-04-23T06:06:36.141Z,3.80
2019-04-23T06:08:49.357Z,3.93
2019-04-23T06:11:22.672Z,3.90
2019-04-23T06:13:44.053Z,4.30
2019-04-23T06:16:15.743Z,3.93
2019-04-23T06:18:40.823Z,4.00
2019-04-23T06:21:10.062Z,4.37
2019-04-23T06:23:38.176Z,4.40
2019-04-23T06:26:10.172Z,4.10
2019-04-23T06:28:28.354Z,4.07
2019-04-23T06:30:56.086Z,3.63
2019-04-23T06:33:22.773Z,4.07
2019-04-23T06:35:51.598Z,4.47
2019-04-23T06:38:39.117Z,3.93
2019-04-23T06:40:44.931Z,4.10
2019-04-23T06:45:37.801Z,3.97
2019-04-23T06:48:16.181Z,4.20
2019-04-23T06:50:43.239Z,4.57
2019-04-23T06:53:02.436Z,4.17
2019-04-23T06:57:58.574Z,3.97
2019-04-23T07:00:29.541Z,3.90
2019-04-23T07:02:57.041Z,3.77
2019-04-23T07:05:40.946Z,3.90
2019-04-23T07:12:41.367Z,4.37
2019-04-23T07:15:24.656Z,3.90
2019-04-23T07:17:32.541Z,3.83
2019-04-23T07:20:00.290Z,3.97
2019-04-23T07:22:46.348Z,4.43
2019-04-23T07:25:00.115Z,4.00
2019-04-23T07:29:56.802Z,4.10
2019-04-23T07:32:15.494Z,3.60
2019-04-23T07:34:49.514Z,4.23
2019-04-23T07:37:15.452Z,3.90
2019-04-23T07:39:57.070Z,3.83
2019-04-23T07:42:28.037Z,3.83
2019-04-23T07:45:02.502Z,4.23
2019-04-23T07:48:27.626Z,4.10
2019-04-23T07:50:54.478Z,3.77
2019-04-23T07:53:24.616Z,3.63
2019-04-23T07:55:56.407Z,3.10
2019-04-23T08:00:48.888Z,3.47
2019-04-23T08:05:40.927Z,3.63
2019-04-23T08:08:07.524Z,4.00
2019-04-23T08:10:37.607Z,3.40
2019-04-23T08:13:14.449Z,3.70
2019-04-23T08:18:00.215Z,3.83
2019-04-23T08:20:30.749Z,4.10
2019-04-23T08:22:57.237Z,3.60
2019-04-23T08:27:24.989Z,3.97
2019-04-23T08:29:58.839Z,3.47
2019-04-23T08:32:36.917Z,3.50
2019-04-23T08:37:26.950Z,3.67
2019-04-23T08:44:59.463Z,3.10
2019-04-23T08:47:20.307Z,3.90
2019-04-23T08:49:47.023Z,3.63
2019-04-23T08:52:15.615Z,4.03
2019-04-23T08:54:52.033Z,3.67
2019-04-23T08:59:42.391Z,3.50
2019-04-23T09:02:18.738Z,3.23
2019-04-23T09:04:31.224Z,3.53
2019-04-23T09:06:53.180Z,3.30
2019-04-23T09:09:24.944Z,3.77
2019-04-23T09:12:02.355Z,3.43
2019-04-23T09:14:04.603Z,3.60
2019-04-23T09:16:42.326Z,3.67
2019-04-23T09:21:32.622Z,3.63
2019-04-23T09:24:00.667Z,3.20
2019-04-23T09:26:30.902Z,3.03
2019-04-23T09:28:57.958Z,3.30
2019-04-23T09:36:06.499Z,3.57
2019-04-23T09:38:39.886Z,2.93
2019-04-23T09:43:48.439Z,3.63
2019-04-23T09:46:22.480Z,3.50
2019-04-23T09:48:51.411Z,3.23
2019-04-23T09:51:15.618Z,3.77
2019-04-23T09:53:34.467Z,3.50
2019-04-23T09:56:01.235Z,3.70
2019-04-23T09:58:37.959Z,3.20
2019-04-23T10:01:17.358Z,3.77
2019-04-23T10:03:25.727Z,3.73
2019-04-23T10:05:48.768Z,3.20
2019-04-23T10:08:16.172Z,3.53
2019-04-23T10:10:34.286Z,3.17
2019-04-23T10:13:00.388Z,3.20
2019-04-23T10:15:33.020Z,3.90
2019-04-23T10:17:56.209Z,3.20
2019-04-23T10:20:22.526Z,3.43
2019-04-23T10:22:50.327Z,3.57
2019-04-23T10:25:17.173Z,3.10
2019-04-23T10:27:43.323Z,3.33
2019-04-23T10:30:10.216Z,3.27
2019-04-23T10:32:37.759Z,2.80
2019-04-23T10:35:14.790Z,3.43
2019-04-23T10:37:42.690Z,3.23
2019-04-23T10:40:03.537Z,3.43
2019-04-23T10:42:28.277Z,3.13
2019-04-23T10:45:27.205Z,3.37
2019-04-23T10:48:22.963Z,3.47
2019-04-23T10:50:46.506Z,3.40
2019-04-23T10:53:26.609Z,3.50
2019-04-23T10:55:47.487Z,3.20
2019-04-23T10:58:12.631Z,3.07
2019-04-23T11:00:37.646Z,3.27
2019-04-23T11:03:14.163Z,3.10
2019-04-23T11:05:42.947Z,2.90
2019-04-23T11:07:47.251Z,3.07
2019-04-23T11:10:22.024Z,3.37
2019-04-23T11:12:48.924Z,3.13
2019-04-23T11:15:33.728Z,3.10
2019-04-23T11:17:47.922Z,3.27
2019-04-23T11:25:26.389Z,3.03
2019-04-23T11:27:44.096Z,2.93
2019-04-23T11:30:19.124Z,3.00
2019-04-23T11:37:45.718Z,3.50
2019-04-23T11:40:15.535Z,2.73
2019-04-23T11:42:32.395Z,3.37
2019-04-23T11:44:56.438Z,2.97
2019-04-23T11:49:53.287Z,2.97
2019-04-23T11:51:05.146Z,2.70
2019-04-23T11:52:23.725Z,3.27
2019-04-23T11:54:43.205Z,3.43
2019-04-23T12:02:26.076Z,3.50
2019-04-23T12:05:03.250Z,2.60
2019-04-23T12:07:32.872Z,2.90
2019-04-23T12:12:28.534Z,3.10
2019-04-23T12:14:59.391Z,3.33
2019-04-23T12:17:26.418Z,2.93
2019-04-23T12:19:57.554Z,3.33
2019-04-23T12:27:30.638Z,2.90
2019-04-23T12:29:47.560Z,3.40
2019-04-23T12:32:40.588Z,3.33
2019-04-23T12:34:58.722Z,2.97
2019-04-23T12:37:14.356Z,3.40
2019-04-23T12:39:41.874Z,4.13
2019-04-23T12:42:20.010Z,3.17
2019-04-23T12:47:05.562Z,3.43
2019-04-23T12:54:43.239Z,3.47
2019-04-23T12:57:07.354Z,3.50
2019-04-23T12:59:23.829Z,3.77
2019-04-23T13:01:52.423Z,3.50
2019-04-23T13:04:22.810Z,3.30
2019-04-23T13:06:39.184Z,3.10
2019-04-23T13:11:34.859Z,3.97
2019-04-23T13:14:07.151Z,3.20
2019-04-23T13:16:37.357Z,3.93
2019-04-23T13:18:58.147Z,3.43
2019-04-23T13:21:45.089Z,3.30
2019-04-23T13:23:55.596Z,3.97
2019-04-23T13:26:16.073Z,3.37
2019-04-23T13:29:11.375Z,3.63
2019-04-23T13:31:15.039Z,4.17
2019-04-23T13:33:45.468Z,3.23
2019-04-23T13:36:18.879Z,3.60
2019-04-23T13:38:40.481Z,3.27
2019-04-23T13:48:21.455Z,3.00
2019-04-23T13:50:59.955Z,3.80
2019-04-23T13:55:45.625Z,3.70
2019-04-23T14:00:52.365Z,3.40
2019-04-23T14:06:25.062Z,3.73
2019-04-23T14:16:13.760Z,3.30
2019-04-23T14:21:08.618Z,3.77
2019-04-23T14:23:41.261Z,3.70
2019-04-23T14:26:10.480Z,3.07
2019-04-23T14:28:32.192Z,3.43
2019-04-23T14:30:53.489Z,3.47
2019-04-23T14:35:47.826Z,3.70
2019-04-23T14:43:17.881Z,3.60
2019-04-23T14:45:59.699Z,3.40
2019-04-23T14:48:12.297Z,3.23
2019-04-23T15:00:25.354Z,3.73
2019-04-23T15:02:59.615Z,3.17
2019-04-23T15:05:17.460Z,3.33
2019-04-23T15:07:51.298Z,3.20
2019-04-23T15:10:20.486Z,3.43
2019-04-23T15:15:14.292Z,3.43
2019-04-23T15:17:33.954Z,3.40
2019-04-23T15:20:04.885Z,3.40
2019-04-23T15:22:39.670Z,3.30
2019-04-23T15:25:11.058Z,3.53
2019-04-23T15:29:47.460Z,3.57
2019-04-23T15:32:30.580Z,3.40
2019-04-23T15:34:52.206Z,3.57
2019-04-23T15:39:51.251Z,3.30
2019-04-23T15:44:36.176Z,3.80
2019-04-23T15:47:14.184Z,3.23
2019-04-23T15:49:37.697Z,3.37
2019-04-23T15:52:03.927Z,3.10
2019-04-23T15:54:37.228Z,3.50
2019-04-23T15:56:55.037Z,3.10
2019-04-23T15:59:31.401Z,3.13
2019-04-23T16:01:40.611Z,3.70
2019-04-23T16:03:49.677Z,3.53
2019-04-23T16:06:19.591Z,3.13
2019-04-23T16:14:17.774Z,3.50
2019-04-23T16:16:41.240Z,3.23
2019-04-23T16:19:20.650Z,3.07
2019-04-23T16:21:47.286Z,3.10
2019-04-23T16:24:16.492Z,3.43
2019-04-23T16:26:40.545Z,3.33
2019-04-23T16:31:34.695Z,2.90
2019-04-23T16:34:04.439Z,3.50
2019-04-23T16:36:27.985Z,3.80
2019-04-23T16:41:24.490Z,3.70
2019-04-23T16:44:00.013Z,3.50
2019-04-23T16:46:21.514Z,3.50
2019-04-23T16:49:02.764Z,3.67
2019-04-23T16:53:37.296Z,3.63
2019-04-23T16:56:13.840Z,3.50
2019-04-23T17:01:05.817Z,3.63
2019-04-23T17:06:01.231Z,3.60
2019-04-23T17:08:42.582Z,3.03
2019-04-23T17:10:53.333Z,3.47
2019-04-23T17:13:25.588Z,3.30
2019-04-23T17:15:53.507Z,4.00
2019-04-23T17:18:13.559Z,3.47
2019-04-23T17:20:40.466Z,3.40
2019-04-23T17:23:16.043Z,4.07
2019-04-23T17:25:35.914Z,3.90
2019-04-23T17:28:12.531Z,3.83
2019-04-23T17:30:28.667Z,3.70
2019-04-23T17:33:05.792Z,3.77
2019-04-23T17:35:31.585Z,3.70
2019-04-23T17:38:05.111Z,3.83
2019-04-23T17:40:30.681Z,3.77
2019-04-23T17:45:32.424Z,3.53
2019-04-23T17:48:07.164Z,3.43
2019-04-23T17:50:35.817Z,3.97
2019-04-23T17:53:03.126Z,3.53
2019-04-23T17:55:33.581Z,4.23
2019-04-23T17:58:01.699Z,3.40
2019-04-23T18:00:40.243Z,4.00
2019-04-23T18:05:16.295Z,3.80
2019-04-23T18:07:50.445Z,3.43
2019-04-23T18:12:44.087Z,3.53
2019-04-23T18:15:14.895Z,3.90
2019-04-23T18:17:36.008Z,4.13
2019-04-23T18:20:28.265Z,3.80
2019-04-23T18:25:11.091Z,3.80
2019-04-23T18:27:42.467Z,3.80
2019-04-23T18:30:15.756Z,4.23
2019-04-23T18:33:18.185Z,3.97
2019-04-23T18:37:46.373Z,3.60
2019-04-23T18:40:03.653Z,3.60
2019-04-23T18:42:46.357Z,4.27
2019-04-23T18:45:20.417Z,3.87
2019-04-23T18:47:43.031Z,3.67
2019-04-23T18:50:02.336Z,3.70
2019-04-23T18:54:53.841Z,4.47
2019-04-23T18:57:25.204Z,3.93
2019-04-23T19:05:18.614Z,4.00
2019-04-23T19:07:56.696Z,3.53
2019-04-23T19:10:29.180Z,4.13
2019-04-23T19:12:48.422Z,4.00
2019-04-23T19:15:23.454Z,4.00
2019-04-23T19:20:15.149Z,3.83
2019-04-23T19:25:02.018Z,3.90
2019-04-23T19:27:39.601Z,4.30
2019-04-23T19:30:04.938Z,4.40
2019-04-23T19:32:34.005Z,4.40
2019-04-23T19:34:49.190Z,4.27
2019-04-23T19:37:34.964Z,3.80
2019-04-23T19:39:48.488Z,3.97
2019-04-23T19:42:29.029Z,3.87
2019-04-23T19:47:16.980Z,3.63
2019-04-23T19:52:03.237Z,5.07
2019-04-23T19:57:19.298Z,4.13
2019-04-23T19:59:43.106Z,4.20
2019-04-23T20:02:00.508Z,4.10
2019-04-23T20:04:35.552Z,4.10
2019-04-23T20:09:37.923Z,4.00
2019-04-23T20:14:11.303Z,4.00
2019-04-23T20:16:50.591Z,4.17
2019-04-23T20:19:19.214Z,4.20
2019-04-23T20:21:47.335Z,3.97
2019-04-23T20:26:45.739Z,4.10
2019-04-23T20:29:19.625Z,3.97
2019-04-23T20:33:02.984Z,4.30
2019-04-23T20:36:46.153Z,4.50
2019-04-23T20:39:14.302Z,3.90
2019-04-23T20:41:56.427Z,3.63
2019-04-23T20:46:32.134Z,4.30
2019-04-23T20:49:00.561Z,4.37
2019-04-23T20:51:34.165Z,3.90
2019-04-23T20:54:02.156Z,4.03
2019-04-23T20:56:30.197Z,4.37
2019-04-23T20:59:00.210Z,3.90
2019-04-23T21:01:31.061Z,3.77
2019-04-23T21:04:13.515Z,3.50
2019-04-23T21:06:21.576Z,4.13
2019-04-23T21:11:36.651Z,3.80
2019-04-23T21:13:56.233Z,3.50
2019-04-23T21:16:08.847Z,3.70
2019-04-23T21:18:36.645Z,3.37
2019-04-23T21:20:56.157Z,3.50
2019-04-23T21:25:52.407Z,3.77
2019-04-23T21:31:16.393Z,3.50
2019-04-23T21:33:50.763Z,3.53
2019-04-23T21:38:48.965Z,3.70
2019-04-23T21:41:27.147Z,3.70
2019-04-23T21:44:00.550Z,3.77
2019-04-23T21:48:48.759Z,3.60
2019-04-23T21:53:38.771Z,3.57
2019-04-23T21:58:26.166Z,3.23
2019-04-23T22:03:34.403Z,3.27
2019-04-23T22:05:51.361Z,3.17
2019-04-23T22:08:06.950Z,3.23
2019-04-23T22:10:45.599Z,3.40
2019-04-23T22:15:45.196Z,3.40
2019-04-23T22:18:00.582Z,3.17
2019-04-23T22:23:05.162Z,3.57
2019-04-23T22:25:22.249Z,3.30
2019-04-23T22:27:54.245Z,3.60
2019-04-23T22:30:12.869Z,3.30
2019-04-23T22:32:56.164Z,3.03
2019-04-23T22:35:07.353Z,2.97
2019-04-23T22:37:46.343Z,2.77
2019-04-23T22:42:58.199Z,3.23
2019-04-23T22:47:33.674Z,2.93
2019-04-23T22:50:02.556Z,2.87
2019-04-23T22:52:21.576Z,3.13
2019-04-23T22:54:57.253Z,3.27
2019-04-23T22:57:09.367Z,3.20
2019-04-23T22:59:56.951Z,2.80
2019-04-23T23:02:30.463Z,3.03
2019-04-23T23:05:06.363Z,3.10
2019-04-23T23:07:19.748Z,2.77
2019-04-23T23:09:50.941Z,3.03
2019-04-23T23:12:13.782Z,3.10
2019-04-23T23:14:36.434Z,2.70
2019-04-23T23:17:02.215Z,3.00
2019-04-23T23:19:40.399Z,2.80
2019-04-23T23:22:03.335Z,2.63
2019-04-23T23:29:46.688Z,2.63
2019-04-23T23:31:56.072Z,2.80
2019-04-23T23:34:15.422Z,2.83
2019-04-23T23:36:46.885Z,2.67
2019-04-23T23:39:21.155Z,2.50
2019-04-23T23:41:43.935Z,2.87
2019-04-23T23:44:27.676Z,2.50
2019-04-23T23:48:59.440Z,2.60
2019-04-23T23:51:29.426Z,2.43
2019-04-23T23:54:00.405Z,2.83
